Time;durP1;ratioP1;P1;durP2;ratioP2;P2;SDS_P1;SDS_P2;PMS_P1;PMS_P2;Temp;Humidity;BMP_temperature;BMP_pressure;BME280_temperature;BME280_humidity;BME280_pressure;Samples;Min_cycle;Max_cycle;Signal;HPM_P1;HPM_P2
2024/01/02 00:00:33;;;;;;;15.05;6.35;;;5.60;99.90;;;;;;4901367;29;20506;-78
2024/01/02 00:02:59;;;;;;;16.23;6.82;;;5.60;99.90;;;;;;4897823;29;20048;-77
2024/01/02 00:05:24;;;;;;;14.57;5.90;;;5.60;99.90;;;;;;4896900;29;20408;-77
2024/01/02 00:07:50;;;;;;;14.57;6.03;;;5.60;99.90;;;;;;4899266;29;20060;-77
2024/01/02 00:10:16;;;;;;;17.65;6.38;;;5.60;99.90;;;;;;4897182;29;20361;-77
2024/01/02 00:12:42;;;;;;;14.55;6.03;;;5.50;99.90;;;;;;4885056;29;20040;-77
2024/01/02 00:15:10;;;;;;;18.15;5.88;;;5.50;99.90;;;;;;4883117;29;20143;-77
2024/01/02 00:17:36;;;;;;;18.75;6.25;;;5.60;99.90;;;;;;4898661;29;20040;-77
2024/01/02 00:20:02;;;;;;;19.02;6.47;;;5.60;99.90;;;;;;4900711;29;20050;-77
2024/01/02 00:22:28;;;;;;;17.92;5.93;;;5.60;99.90;;;;;;4899762;29;20044;-77
2024/01/02 00:24:58;;;;;;;19.90;6.07;;;5.60;99.90;;;;;;4901542;29;20044;-77
2024/01/02 00:27:24;;;;;;;19.70;6.45;;;5.60;99.90;;;;;;4901013;29;20048;-77
2024/01/02 00:29:50;;;;;;;16.65;6.07;;;5.60;99.90;;;;;;4901901;29;20143;-77
2024/01/02 00:32:15;;;;;;;16.20;5.35;;;5.70;99.90;;;;;;4899567;29;20049;-77
2024/01/02 00:34:41;;;;;;;22.35;6.35;;;5.70;99.90;;;;;;4897790;29;20044;-77
2024/01/02 00:37:09;;;;;;;25.85;6.85;;;5.70;99.90;;;;;;4897278;29;20160;-77
2024/01/02 00:39:35;;;;;;;20.83;6.50;;;5.70;99.90;;;;;;4913512;29;20052;-77
2024/01/02 00:42:00;;;;;;;21.73;6.22;;;5.70;99.90;;;;;;4881136;29;20040;-77
2024/01/02 00:44:26;;;;;;;19.40;6.57;;;5.80;99.90;;;;;;4882540;29;20079;-77
2024/01/02 00:46:52;;;;;;;23.88;6.70;;;5.80;99.90;;;;;;4891550;29;20052;-77
2024/01/02 00:49:21;;;;;;;18.00;6.50;;;5.80;99.90;;;;;;4903680;29;20047;-77
2024/01/02 00:51:48;;;;;;;23.90;7.28;;;5.80;99.90;;;;;;4900620;29;20411;-77
2024/01/02 00:54:14;;;;;;;26.30;7.50;;;5.80;99.90;;;;;;4912816;29;20050;-77
2024/01/02 00:56:40;;;;;;;26.02;7.63;;;5.80;99.90;;;;;;4897504;29;20135;-77
2024/01/02 00:59:06;;;;;;;20.58;7.30;;;5.90;99.90;;;;;;4897351;29;20052;-77
2024/01/02 01:01:31;;;;;;;20.60;6.93;;;5.80;99.90;;;;;;4893190;29;20040;-77
2024/01/02 01:03:57;;;;;;;20.80;6.57;;;5.90;99.90;;;;;;4899013;29;20499;-77
2024/01/02 01:06:23;;;;;;;36.47;9.95;;;5.90;99.90;;;;;;4900844;29;20071;-77
2024/01/02 01:08:49;;;;;;;29.27;7.80;;;6.00;99.90;;;;;;4900928;29;20075;-77
2024/01/02 01:11:18;;;;;;;27.05;8.30;;;5.90;99.90;;;;;;4916845;29;20051;-77
2024/01/02 01:13:46;;;;;;;34.45;10.65;;;5.90;99.90;;;;;;4899359;29;20043;-77
2024/01/02 01:16:12;;;;;;;28.00;10.57;;;5.90;99.90;;;;;;4915866;29;20055;-77
2024/01/02 01:18:40;;;;;;;27.52;10.27;;;5.90;99.90;;;;;;4900324;29;20044;-78
2024/01/02 01:21:06;;;;;;;27.20;10.02;;;5.90;99.90;;;;;;4900297;29;20044;-78
2024/01/02 01:23:31;;;;;;;30.58;10.43;;;5.90;99.90;;;;;;4899019;29;20191;-78
2024/01/02 01:25:57;;;;;;;24.15;9.18;;;6.00;99.90;;;;;;4899486;29;20040;-78
2024/01/02 01:28:23;;;;;;;25.40;10.00;;;6.00;99.90;;;;;;4908160;29;20514;-77
2024/01/02 01:30:51;;;;;;;22.08;9.05;;;5.90;99.90;;;;;;4905964;29;20076;-77
2024/01/02 01:33:17;;;;;;;20.48;8.80;;;6.00;99.90;;;;;;4894845;29;20380;-78
2024/01/02 01:35:43;;;;;;;25.23;10.70;;;6.10;99.90;;;;;;4898129;29;20064;-78
2024/01/02 01:38:11;;;;;;;26.85;10.38;;;6.00;99.90;;;;;;4899947;29;20116;-78
2024/01/02 01:40:40;;;;;;;25.83;10.63;;;6.00;99.90;;;;;;4895288;29;20060;-78
2024/01/02 01:43:14;;;;;;;24.50;11.43;;;6.10;99.90;;;;;;4897415;29;20043;-78
2024/01/02 01:45:40;;;;;;;26.17;10.93;;;6.10;99.90;;;;;;4897791;29;20037;-78
2024/01/02 01:48:08;;;;;;;29.02;11.35;;;6.20;99.90;;;;;;4897422;29;20052;-77
2024/01/02 01:50:37;;;;;;;22.58;10.45;;;6.10;99.90;;;;;;4897713;29;20543;-78
2024/01/02 01:53:05;;;;;;;26.88;12.55;;;6.20;99.90;;;;;;4899314;29;20036;-78
2024/01/02 01:55:41;;;;;;;35.65;13.90;;;6.20;99.90;;;;;;4899743;29;20526;-78
2024/01/02 01:58:07;;;;;;;24.20;12.20;;;6.20;99.90;;;;;;4899741;29;20396;-78
2024/01/02 02:00:33;;;;;;;25.98;12.88;;;6.20;99.90;;;;;;4897909;29;20051;-78
2024/01/02 02:03:00;;;;;;;26.67;12.93;;;6.20;99.90;;;;;;4899366;29;20427;-78
2024/01/02 02:05:30;;;;;;;34.97;14.80;;;6.20;99.90;;;;;;4899618;29;20076;-78
2024/01/02 02:07:56;;;;;;;25.42;12.60;;;6.20;99.90;;;;;;4899094;29;20451;-78
2024/01/02 02:10:24;;;;;;;30.70;14.98;;;6.20;99.90;;;;;;4914666;29;20140;-78
2024/01/02 02:12:58;;;;;;;28.13;14.32;;;6.20;99.90;;;;;;4899809;29;20047;-78
2024/01/02 02:15:29;;;;;;;31.85;15.15;;;6.20;99.90;;;;;;4900352;29;20083;-78
2024/01/02 02:17:57;;;;;;;25.25;14.02;;;6.20;99.90;;;;;;4915840;29;20132;-79
2024/01/02 02:20:22;;;;;;;22.33;11.98;;;6.20;99.90;;;;;;4896857;29;20041;-78
2024/01/02 02:23:01;;;;;;;24.80;13.25;;;6.20;99.90;;;;;;4910056;29;20122;-77
2024/01/02 02:25:27;;;;;;;20.90;12.57;;;6.20;99.90;;;;;;4902924;29;20060;-78
2024/01/02 02:27:53;;;;;;;26.20;13.80;;;6.20;99.90;;;;;;4883894;29;20108;-78
2024/01/02 02:30:21;;;;;;;28.27;14.50;;;6.20;99.90;;;;;;4885866;29;20131;-77
2024/01/02 02:32:49;;;;;;;21.42;13.65;;;6.20;99.90;;;;;;4917068;29;20059;-78
2024/01/02 02:35:18;;;;;;;24.95;12.18;;;6.20;99.90;;;;;;4900965;29;20076;-78
2024/01/02 02:37:46;;;;;;;27.25;14.20;;;6.20;99.90;;;;;;4901389;29;20055;-78
2024/01/02 02:40:17;;;;;;;24.73;13.85;;;6.30;99.90;;;;;;4900186;29;20428;-78
2024/01/02 02:42:43;;;;;;;24.48;16.15;;;6.30;99.90;;;;;;4895866;29;20045;-78
2024/01/02 02:45:11;;;;;;;24.08;16.80;;;6.30;99.90;;;;;;4891334;29;20040;-78
2024/01/02 02:47:40;;;;;;;27.98;19.23;;;6.30;99.90;;;;;;4898712;29;20072;-77
2024/01/02 02:50:09;;;;;;;32.90;19.42;;;6.30;99.90;;;;;;4896145;29;20040;-77
2024/01/02 02:52:46;;;;;;;21.33;15.88;;;6.30;99.90;;;;;;4879446;29;20096;-77
2024/01/02 02:55:12;;;;;;;22.02;16.02;;;6.30;99.90;;;;;;4890247;29;20040;-77
2024/01/02 02:57:38;;;;;;;23.75;17.15;;;6.30;99.90;;;;;;4896599;29;20048;-77
2024/01/02 03:00:05;;;;;;;25.70;17.67;;;6.30;99.90;;;;;;4896673;29;20048;-77
2024/01/02 03:02:31;;;;;;;25.40;18.45;;;6.30;99.90;;;;;;4879365;29;20591;-78
2024/01/02 03:05:00;;;;;;;23.45;16.52;;;6.30;99.90;;;;;;4879185;29;20132;-77
2024/01/02 03:07:28;;;;;;;22.52;17.23;;;6.30;99.90;;;;;;4883033;29;20077;-76
2024/01/02 03:09:54;;;;;;;24.13;16.20;;;6.30;99.90;;;;;;4888159;29;20394;-77
2024/01/02 03:12:20;;;;;;;22.05;14.25;;;6.30;99.90;;;;;;4897769;29;20036;-78
2024/01/02 03:14:45;;;;;;;26.48;18.25;;;6.40;99.90;;;;;;4898186;29;20107;-76
2024/01/02 03:17:11;;;;;;;18.50;14.10;;;6.30;99.90;;;;;;4898457;29;20048;-77
2024/01/02 03:19:37;;;;;;;21.80;15.50;;;6.30;99.90;;;;;;4899584;29;20044;-77
2024/01/02 03:22:05;;;;;;;18.23;13.38;;;6.40;99.90;;;;;;4892266;29;20045;-77
2024/01/02 03:24:36;;;;;;;19.40;13.70;;;6.40;99.90;;;;;;4898824;29;20044;-77
2024/01/02 03:27:02;;;;;;;20.67;14.95;;;6.40;99.90;;;;;;4898232;29;20104;-77
2024/01/02 03:29:27;;;;;;;18.75;15.35;;;6.40;99.90;;;;;;4897643;29;20123;-78
2024/01/02 03:31:54;;;;;;;20.48;15.27;;;6.30;99.90;;;;;;4886355;29;20123;-77
2024/01/02 03:34:19;;;;;;;14.65;12.60;;;6.40;99.90;;;;;;4908539;29;20126;-77
2024/01/02 03:36:48;;;;;;;15.65;13.38;;;6.40;99.90;;;;;;4901132;29;20044;-77
2024/01/02 03:39:19;;;;;;;13.48;12.07;;;6.30;99.90;;;;;;4900364;29;20043;-77
2024/01/02 03:41:45;;;;;;;19.48;15.00;;;6.40;99.90;;;;;;4898019;29;20048;-77
2024/01/02 03:44:14;;;;;;;14.32;12.82;;;6.40;99.90;;;;;;4897999;29;20040;-78
2024/01/02 03:46:40;;;;;;;18.52;14.30;;;6.40;99.90;;;;;;4900248;29;20111;-77
2024/01/02 03:49:05;;;;;;;18.02;15.13;;;6.40;99.90;;;;;;4912169;29;20064;-77
2024/01/02 03:51:36;;;;;;;18.02;14.95;;;6.40;99.90;;;;;;4894371;29;20111;-78
2024/01/02 03:54:05;;;;;;;23.42;15.52;;;6.40;99.90;;;;;;4897839;29;20040;-78
2024/01/02 03:56:34;;;;;;;17.92;13.70;;;6.40;99.90;;;;;;4882149;29;20041;-78
2024/01/02 03:59:05;;;;;;;17.88;13.65;;;6.40;99.90;;;;;;4896962;29;20053;-78
2024/01/02 04:01:31;;;;;;;14.15;11.32;;;6.40;99.90;;;;;;4899752;29;20148;-77
2024/01/02 04:03:57;;;;;;;15.77;12.15;;;6.40;99.90;;;;;;4900959;29;20048;-77
2024/01/02 04:06:30;;;;;;;13.05;10.43;;;6.30;99.90;;;;;;4900721;29;20080;-77
2024/01/02 04:08:59;;;;;;;19.98;15.43;;;6.40;99.90;;;;;;4897389;29;20044;-77
2024/01/02 04:11:27;;;;;;;17.13;14.65;;;6.40;99.90;;;;;;4886442;29;20049;-77
2024/01/02 04:13:53;;;;;;;14.48;11.02;;;6.40;99.90;;;;;;4881324;29;20104;-81
2024/01/02 04:16:18;;;;;;;13.63;11.25;;;6.40;99.90;;;;;;4913014;29;20037;-77
2024/01/02 04:18:45;;;;;;;12.30;11.00;;;6.40;99.90;;;;;;4898576;29;20050;-77
2024/01/02 04:21:11;;;;;;;11.52;9.30;;;6.40;99.90;;;;;;4897115;29;20087;-78
2024/01/02 04:23:39;;;;;;;9.43;7.93;;;6.40;99.90;;;;;;4897074;29;20463;-78
2024/01/02 04:26:09;;;;;;;17.33;11.20;;;6.40;99.90;;;;;;4897870;29;20419;-77
2024/01/02 04:28:38;;;;;;;10.30;8.70;;;6.40;99.90;;;;;;4892916;29;20044;-78
2024/01/02 04:31:04;;;;;;;11.95;9.77;;;6.40;99.90;;;;;;4921863;23;20517;-80
2024/01/02 04:33:29;;;;;;;12.35;9.85;;;6.40;99.90;;;;;;4882011;29;20448;-80
2024/01/02 04:35:55;;;;;;;11.43;9.98;;;6.40;99.90;;;;;;4897423;29;20041;-80
2024/01/02 04:38:21;;;;;;;12.82;11.55;;;6.50;99.90;;;;;;4885780;29;20064;-80
2024/01/02 04:40:46;;;;;;;12.55;11.30;;;6.40;99.90;;;;;;4910953;29;20492;-81
2024/01/02 04:43:12;;;;;;;14.65;13.43;;;6.50;99.90;;;;;;4897081;29;20574;-80
2024/01/02 04:45:37;;;;;;;15.50;13.90;;;6.50;99.90;;;;;;4897351;29;20491;-80
2024/01/02 04:48:03;;;;;;;12.75;11.55;;;6.50;99.90;;;;;;4881339;29;20511;-80
2024/01/02 04:50:29;;;;;;;14.98;13.52;;;6.50;99.90;;;;;;4881365;29;20184;-80
2024/01/02 04:52:54;;;;;;;11.43;10.35;;;6.50;99.90;;;;;;4880523;29;20131;-81
2024/01/02 04:55:20;;;;;;;10.27;9.48;;;6.50;99.90;;;;;;4881024;29;20488;-80
2024/01/02 04:57:45;;;;;;;12.93;11.63;;;6.50;99.90;;;;;;4881368;29;20057;-80
2024/01/02 05:00:11;;;;;;;11.85;10.68;;;6.50;99.90;;;;;;4881400;29;20036;-80
2024/01/02 05:02:37;;;;;;;11.80;10.77;;;6.50;99.90;;;;;;4881227;29;20040;-80
2024/01/02 05:05:03;;;;;;;14.55;13.02;;;6.50;99.90;;;;;;4896756;29;20491;-81
2024/01/02 05:07:29;;;;;;;10.52;9.52;;;6.60;99.90;;;;;;4880284;29;20285;-81
2024/01/02 05:09:55;;;;;;;10.55;9.60;;;6.60;99.90;;;;;;4877104;29;20120;-81
2024/01/02 05:12:21;;;;;;;12.65;11.32;;;6.60;99.90;;;;;;4875548;29;20380;-81
2024/01/02 05:14:46;;;;;;;9.18;8.27;;;6.60;99.90;;;;;;4881114;29;20040;-81
2024/01/02 05:17:12;;;;;;;12.90;11.40;;;6.60;99.90;;;;;;4881144;29;20037;-80
2024/01/02 05:19:37;;;;;;;16.52;13.77;;;6.60;99.90;;;;;;4880608;29;20064;-81
2024/01/02 05:22:03;;;;;;;16.75;14.15;;;6.60;99.90;;;;;;4880190;29;20040;-81
2024/01/02 05:24:29;;;;;;;12.80;11.48;;;6.60;99.90;;;;;;4880723;29;20088;-81
2024/01/02 05:26:54;;;;;;;13.82;12.15;;;6.60;99.90;;;;;;4880925;29;20040;-81
2024/01/02 05:29:20;;;;;;;10.30;9.50;;;6.60;99.90;;;;;;4895419;29;20047;-82
2024/01/02 05:31:45;;;;;;;12.20;11.00;;;6.60;99.90;;;;;;4885891;29;20104;-81
2024/01/02 05:34:11;;;;;;;11.35;10.35;;;6.60;99.90;;;;;;4862022;29;20052;-81
2024/01/02 05:36:37;;;;;;;13.05;11.95;;;6.60;99.90;;;;;;4870465;29;20040;-81
2024/01/02 05:39:02;;;;;;;12.63;11.60;;;6.70;99.90;;;;;;4895795;29;20044;-81
2024/01/02 05:41:28;;;;;;;14.00;12.60;;;6.70;99.90;;;;;;4895743;29;20037;-81
2024/01/02 05:43:53;;;;;;;12.02;11.02;;;6.70;99.90;;;;;;4880534;29;20127;-81
2024/01/02 05:46:19;;;;;;;12.88;11.77;;;6.70;99.90;;;;;;4896181;29;20095;-81
2024/01/02 05:48:45;;;;;;;12.57;11.48;;;6.70;99.90;;;;;;4880657;29;20097;-81
2024/01/02 05:51:11;;;;;;;14.25;12.90;;;6.70;99.90;;;;;;4894579;29;20040;-82
2024/01/02 05:53:36;;;;;;;14.45;13.15;;;6.70;99.90;;;;;;4880554;29;20083;-82
2024/01/02 05:56:02;;;;;;;15.02;13.73;;;6.70;99.90;;;;;;4880626;29;20135;-81
2024/01/02 05:58:27;;;;;;;13.40;12.30;;;6.80;99.90;;;;;;4880312;29;20047;-82
2024/01/02 06:00:53;;;;;;;15.90;14.43;;;6.80;99.90;;;;;;4877117;29;20116;-80
2024/01/02 06:03:19;;;;;;;15.55;14.07;;;6.80;99.90;;;;;;4875832;29;20067;-81
2024/01/02 06:05:45;;;;;;;18.75;16.02;;;6.80;99.90;;;;;;4880215;29;20041;-81
2024/01/02 06:08:11;;;;;;;12.93;11.93;;;6.90;99.90;;;;;;4880523;29;20044;-81
2024/01/02 06:10:38;;;;;;;13.38;12.18;;;6.90;99.90;;;;;;4880312;29;20503;-80
2024/01/02 06:13:04;;;;;;;13.50;12.18;;;6.90;99.90;;;;;;4887962;29;20136;-80
2024/01/02 06:15:30;;;;;;;13.05;11.90;;;6.90;99.90;;;;;;4879489;29;20128;-81
2024/01/02 06:17:55;;;;;;;19.55;15.90;;;7.00;99.90;;;;;;4879602;29;20040;-81
2024/01/02 06:20:21;;;;;;;10.40;9.45;;;7.00;99.90;;;;;;4895791;29;20047;-81
2024/01/02 06:22:46;;;;;;;10.85;9.48;;;7.00;99.90;;;;;;4879312;29;20052;-82
2024/01/02 06:25:12;;;;;;;17.98;13.00;;;7.00;99.90;;;;;;4879943;29;20036;-81
2024/01/02 06:27:38;;;;;;;19.00;13.32;;;7.10;99.90;;;;;;4880036;29;20483;-81
2024/01/02 06:30:04;;;;;;;14.15;10.82;;;7.10;99.90;;;;;;4895088;29;20053;-81
2024/01/02 06:32:31;;;;;;;11.63;9.88;;;7.20;99.90;;;;;;4895195;29;20036;-81
2024/01/02 06:34:57;;;;;;;13.75;10.45;;;7.20;99.90;;;;;;4895721;29;20049;-81
2024/01/02 06:37:23;;;;;;;10.95;8.88;;;7.20;99.90;;;;;;4880424;29;20048;-81
2024/01/02 06:39:49;;;;;;;11.73;9.13;;;7.20;99.90;;;;;;4880776;29;20157;-81
2024/01/02 06:42:15;;;;;;;9.75;7.97;;;7.20;99.90;;;;;;4898834;29;20525;-81
2024/01/02 06:44:40;;;;;;;10.40;7.55;;;7.30;99.90;;;;;;4883788;29;20045;-81
2024/01/02 06:47:06;;;;;;;13.93;7.68;;;7.30;99.90;;;;;;4899327;29;20041;-81
2024/01/02 06:49:31;;;;;;;9.85;7.13;;;7.40;99.90;;;;;;4884024;29;20045;-81
2024/01/02 06:51:57;;;;;;;9.82;6.50;;;7.40;99.90;;;;;;4882641;29;20070;-81
2024/01/02 06:54:22;;;;;;;7.88;6.20;;;7.40;99.90;;;;;;4898463;29;20045;-81
2024/01/02 06:56:48;;;;;;;10.93;6.65;;;7.50;99.90;;;;;;4883487;29;20040;-81
2024/01/02 06:59:13;;;;;;;10.52;6.22;;;7.60;99.90;;;;;;4883577;29;20048;-81
2024/01/02 07:01:39;;;;;;;12.30;6.78;;;7.60;99.90;;;;;;4882548;29;20046;-81
2024/01/02 07:04:04;;;;;;;10.57;6.40;;;7.60;99.90;;;;;;4882359;29;20186;-81
2024/01/02 07:06:30;;;;;;;10.38;6.07;;;7.60;99.90;;;;;;4882423;29;20492;-81
2024/01/02 07:08:56;;;;;;;8.23;5.63;;;7.70;99.90;;;;;;4883277;29;20071;-81
2024/01/02 07:11:21;;;;;;;7.63;5.22;;;7.70;99.90;;;;;;4883276;29;20433;-81
2024/01/02 07:13:47;;;;;;;8.73;6.03;;;7.80;99.90;;;;;;4883205;29;20104;-81
2024/01/02 07:16:13;;;;;;;18.52;8.20;;;7.80;99.90;;;;;;4883357;29;20052;-81
2024/01/02 07:18:38;;;;;;;15.07;7.22;;;7.90;99.90;;;;;;4891548;29;20045;-81
2024/01/02 07:21:04;;;;;;;18.70;7.97;;;7.90;99.90;;;;;;4882946;29;20488;-82
2024/01/02 07:23:29;;;;;;;17.83;8.35;;;7.90;99.90;;;;;;4882986;29;20096;-81
2024/01/02 07:25:55;;;;;;;11.48;7.22;;;7.90;99.90;;;;;;4883199;29;20471;-82
2024/01/02 07:28:21;;;;;;;14.13;8.27;;;8.00;99.90;;;;;;4883225;29;20044;-82
2024/01/02 07:30:48;;;;;;;17.70;8.98;;;8.00;99.90;;;;;;4883160;29;20104;-81
2024/01/02 07:33:14;;;;;;;21.40;10.68;;;8.10;99.90;;;;;;4880353;29;20044;-82
2024/01/02 07:35:40;;;;;;;30.15;12.05;;;8.10;99.90;;;;;;4881437;29;21422;-82
2024/01/02 07:38:06;;;;;;;31.48;14.15;;;8.20;99.90;;;;;;4882020;29;20041;-81
2024/01/02 07:40:32;;;;;;;29.60;14.40;;;8.20;99.90;;;;;;4882773;29;20040;-82
2024/01/02 07:42:58;;;;;;;20.40;12.75;;;8.30;99.90;;;;;;4882160;29;20041;-82
2024/01/02 07:45:23;;;;;;;23.08;13.93;;;8.40;99.90;;;;;;4898563;29;20044;-82
2024/01/02 07:47:49;;;;;;;32.05;14.80;;;8.40;99.90;;;;;;4882194;29;20048;-82
2024/01/02 07:50:15;;;;;;;40.80;15.93;;;8.50;99.90;;;;;;4893660;29;20041;-82
2024/01/02 07:52:41;;;;;;;38.45;15.65;;;8.50;99.90;;;;;;4881765;29;20036;-82
2024/01/02 07:55:09;;;;;;;36.33;14.75;;;8.50;99.90;;;;;;4882877;29;20045;-81
2024/01/02 07:57:35;;;;;;;26.58;13.55;;;8.50;99.90;;;;;;4897053;29;20040;-82
2024/01/02 08:00:01;;;;;;;20.38;12.85;;;8.60;99.90;;;;;;4876079;29;20563;-82
2024/01/02 08:02:26;;;;;;;24.98;12.73;;;8.60;99.90;;;;;;4880913;29;20507;-82
2024/01/02 08:04:52;;;;;;;32.13;14.07;;;8.80;99.90;;;;;;4882386;29;20115;-82
2024/01/02 08:07:17;;;;;;;26.35;12.82;;;8.80;99.90;;;;;;4898038;29;20128;-82
2024/01/02 08:09:43;;;;;;;30.25;13.57;;;8.90;99.90;;;;;;4882471;29;20108;-82
2024/01/02 08:12:09;;;;;;;26.88;12.77;;;9.00;99.90;;;;;;4895498;29;20048;-82
2024/01/02 08:14:34;;;;;;;27.45;12.45;;;9.00;99.90;;;;;;4897521;29;20095;-82
2024/01/02 08:17:00;;;;;;;37.65;13.57;;;9.10;99.90;;;;;;4898173;29;20045;-82
2024/01/02 08:19:26;;;;;;;36.95;11.90;;;9.10;99.90;;;;;;4882260;29;20049;-82
2024/01/02 08:21:51;;;;;;;33.75;11.35;;;9.10;99.90;;;;;;4881194;29;20567;-82
2024/01/02 08:24:17;;;;;;;33.80;10.30;;;9.10;99.90;;;;;;4882002;29;20080;-82
2024/01/02 08:26:42;;;;;;;30.67;8.50;;;9.20;99.90;;;;;;4877140;29;20048;-82
2024/01/02 08:29:08;;;;;;;33.55;8.73;;;9.20;99.90;;;;;;4896789;29;20059;-82
2024/01/02 08:31:34;;;;;;;30.95;7.97;;;9.20;99.90;;;;;;4897038;29;20045;-82
2024/01/02 08:33:59;;;;;;;25.85;7.18;;;9.30;99.90;;;;;;4897435;29;20140;-82
2024/01/02 08:36:25;;;;;;;31.77;7.45;;;9.30;99.90;;;;;;4897318;29;20051;-80
2024/01/02 08:38:51;;;;;;;28.15;6.82;;;9.40;99.90;;;;;;4897016;29;20087;-80
2024/01/02 08:41:16;;;;;;;32.22;6.65;;;9.40;99.90;;;;;;4896334;29;20036;-81
2024/01/02 08:43:42;;;;;;;33.35;6.88;;;9.40;99.90;;;;;;4897028;29;20487;-81
2024/01/02 08:46:07;;;;;;;32.17;6.07;;;9.50;99.90;;;;;;4880546;29;20136;-81
2024/01/02 08:48:34;;;;;;;31.77;6.63;;;9.50;99.90;;;;;;4884738;29;20429;-81
2024/01/02 08:50:59;;;;;;;27.00;5.57;;;9.50;99.90;;;;;;4880505;29;20040;-81
2024/01/02 08:53:25;;;;;;;26.60;6.35;;;9.50;99.90;;;;;;4873893;29;20376;-82
2024/01/02 08:55:50;;;;;;;28.20;6.05;;;9.50;99.90;;;;;;4896728;29;20052;-81
2024/01/02 08:58:16;;;;;;;23.42;5.00;;;9.60;99.90;;;;;;4881369;29;20052;-82
2024/01/02 09:00:42;;;;;;;32.83;6.45;;;9.60;99.90;;;;;;4895761;29;20063;-82
2024/01/02 09:03:10;;;;;;;30.40;5.85;;;9.70;99.90;;;;;;4895982;29;20039;-81
2024/01/02 09:05:36;;;;;;;23.50;5.30;;;9.70;99.90;;;;;;4880926;29;20043;-81
2024/01/02 09:08:04;;;;;;;26.05;5.55;;;9.70;99.90;;;;;;4896829;29;20040;-81
2024/01/02 09:10:29;;;;;;;27.38;5.85;;;9.70;99.90;;;;;;4896708;29;20055;-81
2024/01/02 09:12:55;;;;;;;28.25;5.80;;;9.80;99.90;;;;;;4894775;29;20045;-82
2024/01/02 09:15:21;;;;;;;22.35;4.50;;;9.80;99.90;;;;;;4878751;29;20059;-81
2024/01/02 09:17:46;;;;;;;26.52;4.97;;;9.80;99.90;;;;;;4880803;29;20168;-81
2024/01/02 09:20:12;;;;;;;24.25;4.85;;;9.80;99.90;;;;;;4880622;29;20040;-84
2024/01/02 09:22:38;;;;;;;21.25;4.85;;;9.90;99.90;;;;;;4881530;29;20077;-81
2024/01/02 09:25:05;;;;;;;22.98;4.82;;;9.90;99.90;;;;;;4893829;29;20041;-80
2024/01/02 09:27:31;;;;;;;23.80;4.28;;;9.90;99.90;;;;;;4880581;29;20052;-82
2024/01/02 09:29:58;;;;;;;28.13;5.00;;;9.90;99.90;;;;;;4880958;29;20087;-80
2024/01/02 09:32:25;;;;;;;25.40;4.95;;;10.00;99.90;;;;;;4895643;29;20095;-81
2024/01/02 09:34:51;;;;;;;26.45;5.10;;;10.00;99.90;;;;;;4896052;29;20535;-81
2024/01/02 09:37:17;;;;;;;25.30;4.65;;;10.00;99.90;;;;;;4880040;29;20126;-81
2024/01/02 09:39:46;;;;;;;24.23;4.97;;;10.00;99.90;;;;;;4895720;29;20045;-82
2024/01/02 09:42:43;;;;;;;24.83;5.05;;;10.00;99.90;;;;;;4877895;29;20140;-81
2024/01/02 09:45:16;;;;;;;19.40;5.35;;;10.00;99.90;;;;;;4868382;29;20045;-81
2024/01/02 09:48:13;;;;;;;31.23;5.65;;;10.10;99.90;;;;;;4866019;29;20402;-81
2024/01/02 09:50:46;;;;;;;29.85;5.40;;;10.10;99.90;;;;;;4891644;29;20449;-81
2024/01/02 09:53:36;;;;;;;22.77;4.97;;;10.10;99.90;;;;;;4894178;29;20044;-81
2024/01/02 09:56:41;;;;;;;24.38;4.70;;;10.10;99.90;;;;;;4904615;29;20049;-81
2024/01/02 09:59:30;;;;;;;21.63;5.80;;;10.10;99.90;;;;;;4898913;29;20049;-80
2024/01/02 10:02:01;;;;;;;26.90;5.32;;;10.10;99.90;;;;;;4893515;29;20052;-80
2024/01/02 10:04:54;;;;;;;27.98;5.70;;;10.10;99.90;;;;;;4895427;29;20056;-81
2024/01/02 10:07:28;;;;;;;26.17;5.38;;;10.10;99.90;;;;;;4895628;29;20041;-82
2024/01/02 10:10:15;;;;;;;24.10;5.60;;;10.10;99.90;;;;;;4896204;29;20407;-81
2024/01/02 10:12:53;;;;;;;29.98;5.40;;;10.10;99.90;;;;;;4894594;29;20037;-80
2024/01/02 10:15:31;;;;;;;21.73;5.18;;;10.10;99.90;;;;;;4878071;29;20040;-79
2024/01/02 10:18:21;;;;;;;26.75;6.22;;;10.10;99.90;;;;;;4893432;29;20047;-81
2024/01/02 10:21:08;;;;;;;29.60;6.57;;;10.20;99.90;;;;;;4879761;29;20044;-81
2024/01/02 10:23:55;;;;;;;29.25;6.00;;;10.20;99.90;;;;;;4879030;29;20040;-82
2024/01/02 10:26:23;;;;;;;31.90;7.22;;;10.10;99.90;;;;;;4894583;29;20044;-82
2024/01/02 10:28:50;;;;;;;36.25;7.35;;;10.20;99.90;;;;;;4897898;29;20072;-82
2024/01/02 10:31:27;;;;;;;30.90;6.72;;;10.20;99.90;;;;;;4930261;23;20446;-74
2024/01/02 10:34:18;;;;;;;30.33;6.63;;;10.20;99.90;;;;;;4914066;29;20402;-75
2024/01/02 10:36:53;;;;;;;27.73;7.13;;;10.30;99.90;;;;;;4899314;29;20048;-74
2024/01/02 10:39:26;;;;;;;35.38;7.30;;;10.30;99.90;;;;;;4911387;29;20054;-74
2024/01/02 10:42:09;;;;;;;36.72;7.65;;;10.40;99.90;;;;;;4880758;29;20045;-71
2024/01/02 10:44:43;;;;;;;36.00;8.33;;;10.40;99.90;;;;;;4912039;29;20044;-74
2024/01/02 10:47:09;;;;;;;36.53;8.13;;;10.40;99.90;;;;;;4877165;29;20284;-77
2024/01/02 10:49:43;;;;;;;33.78;8.35;;;10.50;99.90;;;;;;4879184;29;20048;-76
2024/01/02 10:52:30;;;;;;;37.50;7.47;;;10.60;99.90;;;;;;4899807;29;20490;-75
2024/01/02 10:55:35;;;;;;;39.15;8.27;;;10.50;99.90;;;;;;4895065;29;20044;-77
2024/01/02 10:58:16;;;;;;;43.22;9.05;;;10.60;99.90;;;;;;4870199;29;20052;-77
2024/01/02 11:01:03;;;;;;;48.10;8.45;;;10.50;99.90;;;;;;4882776;29;20119;-77
2024/01/02 11:03:34;;;;;;;36.17;7.68;;;10.60;99.90;;;;;;4881668;29;20039;-78
2024/01/02 11:06:11;;;;;;;39.38;7.78;;;10.60;99.90;;;;;;4881639;29;20042;-77
2024/01/02 11:08:46;;;;;;;44.67;9.60;;;10.60;99.90;;;;;;4883012;29;20048;-77
2024/01/02 11:11:13;;;;;;;43.10;8.48;;;10.60;99.90;;;;;;4879406;29;20088;-76
2024/01/02 11:13:41;;;;;;;45.22;10.18;;;10.60;99.90;;;;;;4894397;29;20558;-75
2024/01/02 11:16:17;;;;;;;37.78;7.88;;;10.60;99.90;;;;;;4913893;29;20044;-76
2024/01/02 11:18:50;;;;;;;43.10;8.30;;;10.60;99.90;;;;;;4879088;29;20072;-76
2024/01/02 11:21:30;;;;;;;40.50;8.80;;;10.60;99.90;;;;;;4896046;29;20547;-77
2024/01/02 11:24:02;;;;;;;35.03;7.60;;;10.70;99.90;;;;;;4878918;29;20049;-76
2024/01/02 11:26:43;;;;;;;35.15;7.68;;;10.60;99.90;;;;;;4879612;29;20566;-76
2024/01/02 11:29:26;;;;;;;37.90;7.57;;;10.60;99.90;;;;;;4879497;29;20044;-75
2024/01/02 11:31:53;;;;;;;;;;;10.60;99.90;;;;;;4897439;29;20056;-76
2024/01/02 11:34:36;;;;;;;43.10;8.63;;;10.60;99.90;;;;;;4895203;29;19919;-76
2024/01/02 11:37:31;;;;;;;29.48;7.90;;;10.60;99.90;;;;;;4885656;29;20047;-75
2024/01/02 11:40:18;;;;;;;30.83;7.38;;;10.60;99.90;;;;;;4870023;29;20045;-77
2024/01/02 11:43:02;;;;;;;39.95;8.98;;;10.60;99.90;;;;;;4884450;29;20605;-75
2024/01/02 11:45:42;;;;;;;39.40;9.40;;;10.60;99.90;;;;;;4884298;29;20487;-76
2024/01/02 11:48:33;;;;;;;39.67;9.57;;;10.70;99.90;;;;;;4888504;29;20076;-75
2024/01/02 11:51:27;;;;;;;37.38;9.73;;;10.60;99.90;;;;;;4899221;29;20083;-75
2024/01/02 11:53:59;;;;;;;37.70;9.88;;;10.60;99.90;;;;;;4872801;29;20143;-76
2024/01/02 11:56:33;;;;;;;35.28;10.07;;;10.70;99.90;;;;;;4875882;29;20285;-76
2024/01/02 11:59:42;;;;;;;46.35;11.13;;;10.60;99.90;;;;;;4882384;29;20052;-75
2024/01/02 12:02:19;;;;;;;40.17;10.52;;;10.70;99.90;;;;;;4850540;29;20072;-78
2024/01/02 12:05:07;;;;;;;40.45;10.65;;;10.70;99.90;;;;;;4913410;29;20482;-75
2024/01/02 12:07:41;;;;;;;47.70;10.00;;;10.60;99.90;;;;;;4883707;29;20071;-75
2024/01/02 12:10:08;;;;;;;39.47;9.88;;;10.60;99.90;;;;;;4882281;29;20176;-75
2024/01/02 12:12:53;;;;;;;41.47;10.77;;;10.60;99.90;;;;;;4882812;29;20083;-75
2024/01/02 12:15:51;;;;;;;43.33;10.23;;;10.60;99.90;;;;;;4880792;29;20056;-74
2024/01/02 12:18:48;;;;;;;41.75;10.57;;;10.60;99.90;;;;;;4897614;29;20044;-78
2024/01/02 12:21:41;;;;;;;46.05;10.63;;;10.60;99.90;;;;;;4867449;29;20032;-78
2024/01/02 12:24:14;;;;;;;36.58;10.10;;;10.50;99.90;;;;;;4900875;29;20135;-78
2024/01/02 12:27:17;;;;;;;44.38;11.13;;;10.50;99.90;;;;;;4907544;29;20044;-77
2024/01/02 12:29:55;;;;;;;71.13;13.38;;;10.60;99.90;;;;;;4880407;29;20040;-77
2024/01/02 12:32:48;;;;;;;48.85;10.73;;;10.60;99.90;;;;;;4886396;29;20032;-76
2024/01/02 12:35:37;;;;;;;49.97;12.30;;;10.60;99.90;;;;;;4892994;29;20036;-77
2024/01/02 12:38:23;;;;;;;46.67;11.52;;;10.60;99.90;;;;;;4890828;29;20044;-77
2024/01/02 12:40:54;;;;;;;45.17;11.77;;;10.50;99.90;;;;;;4898345;29;20126;-78
2024/01/02 12:43:29;;;;;;;64.05;12.65;;;10.50;99.90;;;;;;4894975;29;20039;-77
2024/01/02 12:46:14;;;;;;;45.20;11.52;;;10.60;99.90;;;;;;4887051;29;20427;-76
2024/01/02 12:48:50;;;;;;;43.00;11.20;;;10.60;99.90;;;;;;4900003;29;20088;-75
2024/01/02 12:51:21;;;;;;;52.95;11.85;;;10.60;99.90;;;;;;4900097;29;20380;-75
2024/01/02 12:53:50;;;;;;;46.50;10.25;;;10.60;99.90;;;;;;4899053;29;20036;-75